LFBOLFBT

Guest
Details From LFBO - Toulouse Blagnac
To LFBT - Tarbes Ossun Lourdes
Flight Number -
Tags generated
Created
Modified
Stats Distance 66 nm / 122 km
Max Altitude 8,900 ft / 2,713 m
Waypoints 3
Social Downloads 7
Likes 0
Share VATSIM

Download

Looking for another format? Having issues loading an existing format? Contact us
Advertisement - Login to hide

Notes

Basic altitude profile: - Ascent Rate: 1500ft/min - Ascent Speed: 180kts - Cruise Altitude: 200000ft - Cruise Speed: 200kts - Descent Rate: 800ft/min - Descent Speed: 150kts

Route

LFBO GONUP LFBT

ID Type Via Altitude Latitude Longitude Leg Dist Tot Dist Heading (true) Name
O LFBO APT - 0 ft / 0 m 43.62903˚ 1.36397˚ - 0 nm - Toulouse Blagnac
GONUP FIX - 8,900 ft / 2,713 m 43.46083˚ 0.75889˚ 28 nm 28 nm 249° / 249° -
O LFBT APT - 0 ft / 0 m 43.17864˚ -0.00634˚ 37 nm 65 nm 243° / 243° Tarbes Ossun Lourdes

Altitude Profile

Advertisement - Login to hide

LFBO

Details ICAO LFBO (TLS)
Name Toulouse Blagnac
Region France
Timezone Europe/Paris (UTC+1.0)
Stats Elevation 499 ft / 152 m (AMSL)
Location 43.629026° 1.363969°
Runways 2
Magnetic Variation 0.575° E

METAR

LFBO 150830Z AUTO 25013KT 9999 FEW018 SCT039 BKN049 06/04 Q1009 NOSIG

Decode

TAF

TAF AMD LFBO 150533Z 1506/1612 27010KT 9999 BKN030 PROB40 TEMPO 1506/1508 -RA BECMG 1508/1510 CAVOK PROB40 TEMPO 1511/1522 28018G30KT TEMPO 1514/1521 4000 SHRA BKN020 BKN040CB PROB30 TEMPO 1600/1605 BKN035

Decode

Departure Runways

ID Width Length Bearing (true) Bearing (mag) Surface Threshold Offset Overrun Length
14L 148 ft / 45 m 9,923 ft / 3,025 m 143.00° 142.43° Asphalt 0 ft / 0 m 0 ft / 0 m
14R 148 ft / 45 m 11,484 ft / 3,500 m 142.99° 142.42° Asphalt 0 ft / 0 m 295 ft / 90 m
32L 148 ft / 45 m 11,484 ft / 3,500 m 323.01° 322.44° Asphalt 0 ft / 0 m 197 ft / 60 m
32R 148 ft / 45 m 9,923 ft / 3,025 m 323.02° 322.45° Asphalt 0 ft / 0 m 0 ft / 0 m

LFBT

Details ICAO LFBT (LDE)
Name Tarbes Ossun Lourdes
Region France
Timezone Europe/Paris (UTC+1.0)
Stats Elevation 1,260 ft / 384 m (AMSL)
Location 43.178643° -0.006340°
Runways 1
Magnetic Variation 0.218° E

METAR

LFBT 150830Z AUTO 25009KT 9999 -RA FEW012 BKN045 BKN052 05/03 Q1010 TEMPO 28020G35KT 2000 SHRA BKN010 BKN015CB

Decode

TAF

TAF TAF LFBT 150500Z 1506/1606 26012KT 9999 BKN016TCU OVC035 TEMPO 1506/1521 28020G35KT 2000 SHRA BKN010 BKN015CB

Decode

Destination Runways

ID Width Length Bearing (true) Bearing (mag) Surface Threshold Offset Overrun Length
02 148 ft / 45 m 9,847 ft / 3,001 m 20.26° 20.04° Asphalt 2,199 ft / 670 m 0 ft / 0 m
20 148 ft / 45 m 9,847 ft / 3,001 m 200.27° 200.05° Asphalt 0 ft / 0 m 0 ft / 0 m

Approach Navaids

Runway Type Ident Frequency Range Bearing (true) Bearing (mag) Slope Elevation
20 Localiser OS 109.50 MHz 18 nm / 33 km 200.27° 200.05° - 1,265 ft / 386 m (AMSL)
20 Glidescope OS 109.50 MHz 10 nm / 19 km 200.27° 200.05° 3.00° 1,265 ft / 386 m (AMSL)
20 DME OS 109.50 MHz 18 nm / 33 km - - - 1,217 ft / 371 m (AMSL)

Popular Alternatives